Weston, Missouri
Current Conditions -  °F | °C
As of 9:53 AM on Tuesday 21 Oct 2014 (Local Time) from KMCI Reporting Station
Clear Clear  
Wind Chill: 60°   Ceiling: Unl
Heat Index: 60°   Visibility: 10mi
Dew Point: 47°   Wind: 0mph
Humidity: 62%   Direction: NA
Pressure: 30.14"   Gusts: NA
Location:  39.41°N, 94.9°W
Report Text: KMCI 211453Z 00000KT 10SM CLR 16/08 A3014 RMK AO2 SLP202 T01560083 52009
Loading
Personal Weather Stations






























Interactive Weather Map New forecast layout! Learn more

10-Day Weather Forecast

Advertisements
Track Severe Weather on mobile